logo
Search for airport 
image banner adimage banner adimage banner ad
image banner ad

YSMI - Smithton

Located in Smithton, Australia

ICAO - YSMI, IATA - SIO

Data provided by Airmate  

General information

Coordinates: S40°50'10" E145°5'0"
Elevation is 31 feet MSL.
Magnetic variation is 13° East
View others Airports in Tasmania

Operational data

Special qualification required
Current time UTC:
Current local time:
Weather at : - ( 0 km )
METAR: PAKX 220735Z AUTO 36003KT 10SM SCT043 SCT049 OVC055 05/00 A2974 RMK AO2
View NOTAMs / SUP AIP / TFR affecting this airport [VIEW]
Communications frequencies: [VIEW]

Runways:

RWY identifierQFULength (ft)Width (ft)SurfaceLDA (ft)
10113°203498GVL
28293°203498GVL
0669°524659ASP
24249°524659ASP

Airport contact information

Address: Smithton Australia

Satellite view of YSMI